createdAt,value
2022-09-09T00:00:56.040Z,2.40
2022-09-09T00:03:28.021Z,2.17
2022-09-09T00:06:05.654Z,2.58
2022-09-09T00:08:48.484Z,3.58
2022-09-09T00:11:30.709Z,3.00
2022-09-09T00:14:05.212Z,3.50
2022-09-09T00:16:38.678Z,2.50
2022-09-09T00:19:14.409Z,2.42
2022-09-09T00:21:59.324Z,2.03
2022-09-09T00:24:32.622Z,5.60
2022-09-09T00:27:04.990Z,4.55
2022-09-09T00:32:14.988Z,4.50
2022-09-09T00:34:49.228Z,3.85
2022-09-09T00:37:17.483Z,4.07
2022-09-09T00:39:49.052Z,4.82
2022-09-09T00:42:19.104Z,3.33
2022-09-09T00:45:22.282Z,5.10
2022-09-09T00:47:52.946Z,4.53
2022-09-09T00:50:41.828Z,5.47
2022-09-09T00:53:24.821Z,5.75
2022-09-09T00:56:02.241Z,6.93
2022-09-09T00:58:30.027Z,5.38
2022-09-09T01:01:07.596Z,4.68
2022-09-09T01:03:39.994Z,3.90
2022-09-09T01:06:17.566Z,6.72
2022-09-09T01:09:06.316Z,7.10
2022-09-09T01:11:43.821Z,7.45
2022-09-09T01:14:21.329Z,6.43
2022-09-09T01:16:49.937Z,6.32
2022-09-09T01:19:27.157Z,7.63
2022-09-09T01:22:05.778Z,10.85
2022-09-09T01:24:40.997Z,8.35
2022-09-09T01:27:12.147Z,6.45
2022-09-09T01:29:40.046Z,6.78
2022-09-09T01:32:40.315Z,10.65
2022-09-09T01:35:13.149Z,9.15
2022-09-09T01:37:40.937Z,8.10
2022-09-09T01:40:09.612Z,9.15
2022-09-09T01:42:38.617Z,4.38
2022-09-09T01:45:07.847Z,8.27
2022-09-09T01:47:36.270Z,6.15
2022-09-09T01:50:04.921Z,6.15
2022-09-09T01:52:34.011Z,6.53
2022-09-09T01:55:01.777Z,6.97
2022-09-09T01:57:35.141Z,5.43
2022-09-09T02:00:09.012Z,5.93
2022-09-09T02:02:41.095Z,9.32
2022-09-09T02:05:26.207Z,7.60
2022-09-09T02:08:02.671Z,5.55
2022-09-09T02:10:34.906Z,7.18
2022-09-09T02:13:06.346Z,9.07
2022-09-09T02:15:45.006Z,8.85
2022-09-09T02:18:16.045Z,7.60
2022-09-09T02:20:46.082Z,9.35
2022-09-09T02:23:15.523Z,8.77
2022-09-09T02:25:45.145Z,12.23
2022-09-09T02:28:15.569Z,9.18
2022-09-09T02:30:48.187Z,13.60
2022-09-09T02:33:16.467Z,11.60
2022-09-09T02:35:46.441Z,11.85
2022-09-09T02:38:17.303Z,9.23
2022-09-09T02:40:44.933Z,8.57
2022-09-09T02:43:12.562Z,10.32
2022-09-09T02:45:49.848Z,13.85
2022-09-09T02:48:27.439Z,11.05
2022-09-09T02:51:01.439Z,10.98
2022-09-09T02:53:36.729Z,13.20
2022-09-09T02:56:11.206Z,11.05
2022-09-09T02:58:40.364Z,10.27
2022-09-09T03:01:09.765Z,10.02
2022-09-09T03:03:37.657Z,8.40
2022-09-09T03:06:06.639Z,7.68
2022-09-09T03:08:34.308Z,22.65
2022-09-09T03:11:03.119Z,9.43
2022-09-09T03:13:31.068Z,11.07
2022-09-09T03:15:58.638Z,7.70
2022-09-09T03:18:29.129Z,13.02
2022-09-09T03:20:56.779Z,12.60
2022-09-09T03:23:24.413Z,10.68
2022-09-09T03:25:53.078Z,9.60
2022-09-09T03:28:21.600Z,8.90
2022-09-09T03:30:49.936Z,8.98
2022-09-09T03:33:18.735Z,10.75
2022-09-09T03:35:49.613Z,7.25
2022-09-09T03:38:17.431Z,6.88
2022-09-09T03:40:51.172Z,8.15
2022-09-09T03:43:18.766Z,9.45
2022-09-09T03:45:48.230Z,11.45
2022-09-09T03:48:16.260Z,10.85
2022-09-09T03:50:48.187Z,10.50
2022-09-09T03:53:17.210Z,10.55
2022-09-09T03:55:46.521Z,14.48
2022-09-09T03:58:15.026Z,15.50
2022-09-09T04:00:45.946Z,13.27
2022-09-09T04:03:14.180Z,10.55
2022-09-09T04:05:43.223Z,10.88
2022-09-09T04:08:12.543Z,12.07
2022-09-09T04:10:40.126Z,14.70
2022-09-09T04:13:07.738Z,15.35
2022-09-09T04:15:36.513Z,12.48
2022-09-09T04:18:04.136Z,14.55
2022-09-09T04:20:31.734Z,13.70
2022-09-09T04:22:59.316Z,16.67
2022-09-09T04:25:28.368Z,14.25
2022-09-09T04:27:56.278Z,13.55
2022-09-09T04:30:23.885Z,12.30
2022-09-09T04:32:51.526Z,12.73
2022-09-09T04:35:20.970Z,12.30
2022-09-09T04:37:48.848Z,17.08
2022-09-09T04:40:16.552Z,14.30
2022-09-09T04:42:45.803Z,14.85
2022-09-09T04:45:14.380Z,8.63
2022-09-09T04:47:42.333Z,15.50
2022-09-09T04:50:10.831Z,14.60
2022-09-09T04:52:38.411Z,20.02
2022-09-09T04:55:07.058Z,16.13
2022-09-09T04:57:34.824Z,11.32
2022-09-09T05:00:05.708Z,14.30
2022-09-09T05:02:33.589Z,14.98
2022-09-09T05:05:01.638Z,14.43
2022-09-09T05:07:30.017Z,14.80
2022-09-09T05:09:57.748Z,16.75
2022-09-09T05:12:26.566Z,16.85
2022-09-09T05:14:54.447Z,14.27
2022-09-09T05:17:23.391Z,13.15
2022-09-09T05:19:51.147Z,14.32
2022-09-09T05:22:22.331Z,15.32
2022-09-09T05:24:52.721Z,18.00
2022-09-09T05:27:21.154Z,13.18
2022-09-09T05:29:48.947Z,9.85
2022-09-09T05:32:18.003Z,18.65
2022-09-09T05:34:47.780Z,19.58
2022-09-09T05:37:15.467Z,11.73
2022-09-09T05:39:43.160Z,15.73
2022-09-09T05:42:10.762Z,11.60
2022-09-09T05:44:38.411Z,11.80
2022-09-09T05:47:06.306Z,13.45
2022-09-09T05:49:33.931Z,15.75
2022-09-09T05:52:04.915Z,18.08
2022-09-09T05:54:33.529Z,12.45
2022-09-09T05:57:01.140Z,17.10
2022-09-09T05:59:29.351Z,16.35
2022-09-09T06:01:57.249Z,13.50
2022-09-09T06:04:25.247Z,11.90
2022-09-09T06:06:52.926Z,13.70
2022-09-09T06:09:21.925Z,14.73
2022-09-09T06:11:49.582Z,15.68
2022-09-09T06:14:19.009Z,16.90
2022-09-09T06:16:47.072Z,15.30
2022-09-09T06:19:15.349Z,13.20
2022-09-09T06:21:43.557Z,16.90
2022-09-09T06:24:11.218Z,15.70
2022-09-09T06:26:42.156Z,16.17
2022-09-09T06:29:10.521Z,17.02
2022-09-09T06:31:39.144Z,11.02
2022-09-09T06:34:08.561Z,15.00
2022-09-09T06:36:37.787Z,16.90
2022-09-09T06:39:05.787Z,17.20
2022-09-09T06:41:35.035Z,16.35
2022-09-09T06:44:04.734Z,16.27
2022-09-09T06:46:36.619Z,14.88
2022-09-09T06:49:04.718Z,18.48
2022-09-09T06:51:33.739Z,15.43
2022-09-09T06:54:03.185Z,16.42
2022-09-09T06:56:32.642Z,18.73
2022-09-09T06:59:05.583Z,15.25
2022-09-09T07:01:35.954Z,15.93
2022-09-09T07:04:08.371Z,11.82
2022-09-09T07:09:05.883Z,12.30
2022-09-09T07:11:35.458Z,12.85
2022-09-09T07:14:04.523Z,12.00
2022-09-09T07:16:34.461Z,13.38
2022-09-09T07:19:03.538Z,10.48
2022-09-09T07:21:32.837Z,14.68
2022-09-09T07:24:00.882Z,15.95
2022-09-09T07:26:31.281Z,12.02
2022-09-09T07:28:59.162Z,11.23
2022-09-09T07:31:31.509Z,11.63
2022-09-09T07:34:00.756Z,12.70
2022-09-09T07:36:33.524Z,8.20
2022-09-09T07:39:03.794Z,9.52
2022-09-09T07:41:35.201Z,10.95
2022-09-09T07:44:07.024Z,10.90
2022-09-09T07:46:37.226Z,10.27
2022-09-09T07:49:05.423Z,10.52
2022-09-09T07:51:35.302Z,7.63
2022-09-09T07:54:04.890Z,12.35
2022-09-09T07:56:33.714Z,11.13
2022-09-09T07:59:02.046Z,7.32
2022-09-09T08:01:32.176Z,11.77
2022-09-09T08:04:03.029Z,8.82
2022-09-09T08:06:34.226Z,12.52
2022-09-09T08:09:02.461Z,6.88
2022-09-09T08:11:35.346Z,7.43
2022-09-09T08:14:06.334Z,6.97
2022-09-09T08:16:37.390Z,7.22
2022-09-09T08:19:08.181Z,4.75
2022-09-09T08:21:38.316Z,6.47
2022-09-09T08:24:07.081Z,10.07
2022-09-09T08:26:36.727Z,6.90
2022-09-09T08:29:06.028Z,7.97
2022-09-09T08:31:35.579Z,8.65
2022-09-09T08:34:04.467Z,8.50
2022-09-09T08:36:35.540Z,8.73
2022-09-09T08:39:04.637Z,10.73
2022-09-09T08:41:42.003Z,11.57
2022-09-09T08:44:15.737Z,10.38
2022-09-09T08:46:53.180Z,9.88
2022-09-09T08:49:39.790Z,9.40
2022-09-09T08:52:16.844Z,7.97
2022-09-09T08:54:52.236Z,7.20
2022-09-09T08:57:27.664Z,6.30
2022-09-09T08:59:58.580Z,8.68
2022-09-09T09:02:30.838Z,7.40
2022-09-09T09:05:10.667Z,8.77
2022-09-09T09:07:54.466Z,8.48
2022-09-09T09:10:42.101Z,7.40
2022-09-09T09:13:16.743Z,8.77
2022-09-09T09:15:48.979Z,15.45
2022-09-09T09:18:22.342Z,11.88
2022-09-09T09:20:55.970Z,12.88
2022-09-09T09:23:27.735Z,8.05
2022-09-09T09:26:01.556Z,8.13
2022-09-09T09:28:31.838Z,14.30
2022-09-09T09:31:03.164Z,11.43
2022-09-09T09:33:37.331Z,10.30
2022-09-09T09:36:07.160Z,8.43
2022-09-09T09:41:33.822Z,8.30
2022-09-09T09:44:02.710Z,10.45
2022-09-09T09:46:30.719Z,7.68
2022-09-09T09:48:59.855Z,7.15
2022-09-09T09:51:30.277Z,8.50
2022-09-09T09:54:16.058Z,6.72
2022-09-09T09:56:44.860Z,6.53
2022-09-09T09:59:41.591Z,6.55
2022-09-09T10:02:17.956Z,6.15
2022-09-09T10:04:46.292Z,8.20
2022-09-09T10:07:15.055Z,8.13
2022-09-09T10:09:44.070Z,5.97
2022-09-09T10:12:23.350Z,4.25
2022-09-09T10:14:59.855Z,4.57
2022-09-09T10:17:38.555Z,6.93
2022-09-09T10:20:24.207Z,5.53
2022-09-09T10:22:54.509Z,5.38
2022-09-09T10:25:46.708Z,6.55
2022-09-09T10:28:42.047Z,7.88
2022-09-09T10:31:20.764Z,5.40
2022-09-09T10:33:53.262Z,8.95
2022-09-09T10:36:23.559Z,7.00
2022-09-09T10:38:59.263Z,5.97
2022-09-09T10:41:42.541Z,8.10
2022-09-09T10:44:24.989Z,7.15
2022-09-09T10:49:51.103Z,6.47
2022-09-09T10:52:24.894Z,4.97
2022-09-09T10:54:59.383Z,7.60
2022-09-09T10:57:33.546Z,6.70
2022-09-09T11:00:06.131Z,10.93
2022-09-09T11:02:36.093Z,11.10
2022-09-09T11:05:09.412Z,9.20
2022-09-09T11:07:44.119Z,21.10
2022-09-09T11:10:25.273Z,9.35
2022-09-09T11:12:59.035Z,8.45
2022-09-09T11:15:31.929Z,6.65
2022-09-09T11:18:03.847Z,7.97
2022-09-09T11:20:33.074Z,6.82
2022-09-09T11:23:05.220Z,11.68
2022-09-09T11:25:37.653Z,11.70
2022-09-09T11:28:25.798Z,8.35
2022-09-09T11:31:08.607Z,7.25
2022-09-09T11:33:56.093Z,6.22
2022-09-09T11:36:56.505Z,5.20
2022-09-09T11:39:44.959Z,8.05
2022-09-09T11:42:19.553Z,6.00
2022-09-09T11:44:48.934Z,5.45
2022-09-09T11:47:30.254Z,6.82
2022-09-09T11:50:09.816Z,5.93
2022-09-09T11:52:39.873Z,7.28
2022-09-09T11:55:12.814Z,8.63
2022-09-09T11:57:40.930Z,10.85
2022-09-09T12:00:34.788Z,18.02
2022-09-09T12:03:02.521Z,14.48
2022-09-09T12:05:39.825Z,10.60
2022-09-09T12:08:08.496Z,28.30
2022-09-09T12:10:40.960Z,8.57
2022-09-09T12:13:18.851Z,5.70
2022-09-09T12:15:52.784Z,6.18
2022-09-09T12:18:26.163Z,4.93
2022-09-09T12:20:59.307Z,5.07
2022-09-09T12:23:38.876Z,7.22
2022-09-09T12:26:23.912Z,4.43
2022-09-09T12:29:01.255Z,7.00
2022-09-09T12:31:37.210Z,3.05
2022-09-09T12:34:12.127Z,4.05
2022-09-09T12:36:41.942Z,5.60
2022-09-09T12:39:19.971Z,6.43
2022-09-09T12:41:58.049Z,4.22
2022-09-09T12:44:26.771Z,2.40
2022-09-09T12:46:57.942Z,2.92
2022-09-09T12:49:35.137Z,3.67
2022-09-09T12:52:06.504Z,4.57
2022-09-09T12:54:35.657Z,2.30
2022-09-09T12:57:03.473Z,3.10
2022-09-09T12:59:38.760Z,3.67
2022-09-09T13:02:20.714Z,4.15
2022-09-09T13:04:49.255Z,2.50
2022-09-09T13:07:17.413Z,5.32
2022-09-09T13:09:46.490Z,4.35
2022-09-09T13:12:18.267Z,2.92
2022-09-09T13:14:49.367Z,4.90
2022-09-09T13:17:23.856Z,6.78
2022-09-09T13:19:53.860Z,7.72
2022-09-09T13:22:33.916Z,9.27
2022-09-09T13:25:04.848Z,6.60
2022-09-09T13:27:35.242Z,8.43
2022-09-09T13:30:03.123Z,6.43
2022-09-09T13:32:32.975Z,12.05
2022-09-09T13:35:02.442Z,27.27
2022-09-09T13:37:35.935Z,10.18
2022-09-09T13:40:06.344Z,8.80
2022-09-09T13:42:38.951Z,8.13
2022-09-09T13:45:07.605Z,8.90
2022-09-09T13:47:37.823Z,6.13
2022-09-09T13:50:21.375Z,5.65
2022-09-09T13:52:50.112Z,7.40
2022-09-09T13:55:17.761Z,3.50
2022-09-09T13:57:53.302Z,7.43
2022-09-09T14:00:21.696Z,3.75
2022-09-09T14:02:51.178Z,3.65
2022-09-09T14:05:20.270Z,3.63
2022-09-09T14:07:52.484Z,3.95
2022-09-09T14:10:21.023Z,4.32
2022-09-09T14:12:48.955Z,2.58
2022-09-09T14:15:17.049Z,5.20
2022-09-09T14:17:44.779Z,2.63
2022-09-09T14:20:16.259Z,5.07
2022-09-09T14:22:45.057Z,3.65
2022-09-09T14:25:14.483Z,4.18
2022-09-09T14:27:43.284Z,7.75
2022-09-09T14:30:12.137Z,4.22
2022-09-09T14:32:39.874Z,3.33
2022-09-09T14:35:08.174Z,8.43
2022-09-09T14:37:37.169Z,2.20
2022-09-09T14:40:05.199Z,2.45
2022-09-09T14:42:33.000Z,7.45
2022-09-09T14:45:00.701Z,9.57
2022-09-09T14:47:28.355Z,11.70
2022-09-09T14:49:56.092Z,5.75
2022-09-09T14:52:23.707Z,4.97
2022-09-09T14:54:52.701Z,5.63
2022-09-09T14:57:20.520Z,5.07
2022-09-09T14:59:48.177Z,6.40
2022-09-09T15:02:15.863Z,4.82
2022-09-09T15:04:43.702Z,3.20
2022-09-09T15:07:11.799Z,5.57
2022-09-09T15:09:39.519Z,5.95
2022-09-09T15:12:10.143Z,3.38
2022-09-09T15:14:37.823Z,3.13
2022-09-09T15:17:05.559Z,3.63
2022-09-09T15:19:33.326Z,4.77
2022-09-09T15:22:01.367Z,5.40
2022-09-09T15:24:29.649Z,6.20
2022-09-09T15:26:57.560Z,9.23
2022-09-09T15:29:26.809Z,10.45
2022-09-09T15:31:55.743Z,11.75
2022-09-09T15:34:23.876Z,12.13
2022-09-09T15:36:51.548Z,17.67
2022-09-09T15:39:19.968Z,8.50
2022-09-09T15:41:49.523Z,7.18
2022-09-09T15:44:17.766Z,9.45
2022-09-09T15:46:48.254Z,6.63
2022-09-09T15:49:19.763Z,10.27
2022-09-09T15:51:49.498Z,8.30
2022-09-09T15:54:18.996Z,7.55
2022-09-09T15:56:49.767Z,8.38
2022-09-09T15:59:18.018Z,7.20
2022-09-09T16:01:47.457Z,9.38
2022-09-09T16:04:16.633Z,19.40
2022-09-09T16:06:44.263Z,10.45
2022-09-09T16:09:11.980Z,10.80
2022-09-09T16:11:40.165Z,15.27
2022-09-09T16:14:08.350Z,11.32
2022-09-09T16:16:37.358Z,8.95
2022-09-09T16:19:08.435Z,7.75
2022-09-09T16:21:40.587Z,7.75
2022-09-09T16:24:10.267Z,6.38
2022-09-09T16:26:39.928Z,5.47
2022-09-09T16:29:07.877Z,6.47
2022-09-09T16:31:35.586Z,4.55
2022-09-09T16:34:04.623Z,5.32
2022-09-09T16:36:36.078Z,19.05
2022-09-09T16:39:06.051Z,3.97
2022-09-09T16:41:34.338Z,5.03
2022-09-09T16:44:03.898Z,3.60
2022-09-09T16:46:33.682Z,3.63
2022-09-09T16:49:02.927Z,3.47
2022-09-09T16:51:34.317Z,4.85
2022-09-09T16:54:03.894Z,5.28
2022-09-09T16:56:33.928Z,4.68
2022-09-09T16:59:03.428Z,3.20
2022-09-09T17:01:34.026Z,4.40
2022-09-09T17:04:03.564Z,5.18
2022-09-09T17:06:35.475Z,3.33
2022-09-09T17:09:06.884Z,4.85
2022-09-09T17:11:37.915Z,4.50
2022-09-09T17:14:06.349Z,4.47
2022-09-09T17:16:36.166Z,3.05
2022-09-09T17:19:05.746Z,5.35
2022-09-09T17:21:35.163Z,3.40
2022-09-09T17:24:03.311Z,23.88
2022-09-09T17:26:33.961Z,6.70
2022-09-09T17:29:03.019Z,3.78
2022-09-09T17:31:33.399Z,4.70
2022-09-09T17:34:01.183Z,5.38
2022-09-09T17:36:31.094Z,8.00
2022-09-09T17:39:01.692Z,6.15
2022-09-09T17:41:31.682Z,4.90
2022-09-09T17:44:00.007Z,5.13
2022-09-09T17:46:29.455Z,4.20
2022-09-09T17:48:58.861Z,5.82
2022-09-09T17:51:30.592Z,4.72
2022-09-09T17:54:01.188Z,7.32
2022-09-09T17:56:31.693Z,4.93
2022-09-09T17:59:00.482Z,6.15
2022-09-09T18:01:31.268Z,4.97
2022-09-09T18:04:01.980Z,6.60
2022-09-09T18:06:33.765Z,6.63
2022-09-09T18:09:06.200Z,5.68
2022-09-09T18:11:38.611Z,7.10
2022-09-09T18:16:36.328Z,5.20
2022-09-09T18:19:05.431Z,5.20
2022-09-09T18:21:34.168Z,5.07
2022-09-09T18:24:07.492Z,5.15
2022-09-09T18:26:36.507Z,8.05
2022-09-09T18:29:07.122Z,9.20
2022-09-09T18:31:37.702Z,7.00
2022-09-09T18:34:09.927Z,9.95
2022-09-09T18:36:39.829Z,5.57
2022-09-09T18:39:09.642Z,8.07
2022-09-09T18:41:38.747Z,8.70
2022-09-09T18:44:10.195Z,8.60
2022-09-09T18:46:39.810Z,10.52
2022-09-09T18:49:08.481Z,13.95
2022-09-09T18:51:37.125Z,17.70
2022-09-09T18:54:07.815Z,13.52
2022-09-09T18:56:37.298Z,13.00
2022-09-09T18:59:07.542Z,14.43
2022-09-09T19:01:36.094Z,12.75
2022-09-09T19:04:06.120Z,11.05
2022-09-09T19:06:34.991Z,7.25
2022-09-09T19:09:03.745Z,6.78
2022-09-09T19:11:33.443Z,5.47
2022-09-09T19:14:05.356Z,7.57
2022-09-09T19:16:35.436Z,6.77
2022-09-09T19:19:06.129Z,6.60
2022-09-09T19:21:35.710Z,9.13
2022-09-09T19:24:06.573Z,9.90
2022-09-09T19:26:40.392Z,10.85
2022-09-09T19:29:11.142Z,9.73
2022-09-09T19:31:41.551Z,5.30
2022-09-09T19:34:13.945Z,7.20
2022-09-09T19:36:42.408Z,5.82
2022-09-09T19:39:11.538Z,5.25
2022-09-09T19:41:39.263Z,5.70
2022-09-09T19:44:13.222Z,2.70
2022-09-09T19:46:44.551Z,3.95
2022-09-09T19:49:12.287Z,4.35
2022-09-09T19:51:40.210Z,8.95
2022-09-09T19:54:10.574Z,8.02
2022-09-09T19:56:40.173Z,10.05
2022-09-09T19:59:11.652Z,12.82
2022-09-09T20:01:41.889Z,7.83
2022-09-09T20:04:10.223Z,5.35
2022-09-09T20:06:39.625Z,4.63
2022-09-09T20:09:10.290Z,4.65
2022-09-09T20:11:38.337Z,9.82
2022-09-09T20:14:06.269Z,5.18
2022-09-09T20:16:36.044Z,3.80
2022-09-09T20:19:06.159Z,2.75
2022-09-09T20:21:36.077Z,3.38
2022-09-09T20:24:07.361Z,3.90
2022-09-09T20:26:37.488Z,4.15
2022-09-09T20:29:07.771Z,5.35
2022-09-09T20:31:40.497Z,6.75
2022-09-09T20:34:10.045Z,6.90
2022-09-09T20:36:38.821Z,7.32
2022-09-09T20:39:08.927Z,7.97
2022-09-09T20:41:38.326Z,6.35
2022-09-09T20:44:08.325Z,6.00
2022-09-09T20:46:39.105Z,7.95
2022-09-09T20:49:08.699Z,8.23
2022-09-09T20:51:37.517Z,8.13
2022-09-09T20:54:08.569Z,9.55
2022-09-09T20:56:38.563Z,9.10
2022-09-09T20:59:07.171Z,7.93
2022-09-09T21:01:34.919Z,8.10
2022-09-09T21:04:04.697Z,7.90
2022-09-09T21:06:32.400Z,7.93
2022-09-09T21:09:00.084Z,7.72
2022-09-09T21:11:27.901Z,11.10
2022-09-09T21:13:56.282Z,9.10
2022-09-09T21:16:24.039Z,8.15
2022-09-09T21:18:51.980Z,10.55
2022-09-09T21:21:21.671Z,11.48
2022-09-09T21:23:49.835Z,10.30
2022-09-09T21:26:19.487Z,8.13
2022-09-09T21:28:47.261Z,9.15
2022-09-09T21:31:16.135Z,10.02
2022-09-09T21:33:44.239Z,8.05
2022-09-09T21:36:13.692Z,7.65
2022-09-09T21:38:43.767Z,7.03
2022-09-09T21:41:13.862Z,9.10
2022-09-09T21:43:42.473Z,5.30
2022-09-09T21:46:11.583Z,5.75
2022-09-09T21:48:39.397Z,5.15
2022-09-09T21:51:10.190Z,5.95
2022-09-09T21:53:38.548Z,7.47
2022-09-09T21:56:09.243Z,7.07
2022-09-09T21:58:37.801Z,7.40
2022-09-09T22:01:10.296Z,8.30
2022-09-09T22:06:08.469Z,4.80
2022-09-09T22:08:37.134Z,5.72
2022-09-09T22:11:10.276Z,5.72
2022-09-09T22:13:38.663Z,9.63
2022-09-09T22:16:08.489Z,8.73
2022-09-09T22:18:36.774Z,6.80
2022-09-09T22:21:07.138Z,9.52
2022-09-09T22:23:34.740Z,9.23
2022-09-09T22:26:02.366Z,9.45
2022-09-09T22:28:31.468Z,11.02
2022-09-09T22:30:59.455Z,10.40
2022-09-09T22:33:27.986Z,13.45
2022-09-09T22:35:56.121Z,12.05
2022-09-09T22:38:23.979Z,8.38
2022-09-09T22:40:51.817Z,11.38
2022-09-09T22:43:21.519Z,12.88
2022-09-09T22:45:51.127Z,10.55
2022-09-09T22:48:19.493Z,10.18
2022-09-09T22:50:48.063Z,9.00
2022-09-09T22:53:18.602Z,10.35
2022-09-09T22:55:58.499Z,11.45
2022-09-09T22:58:26.767Z,9.20
2022-09-09T23:00:58.690Z,9.68
2022-09-09T23:03:26.512Z,6.68
2022-09-09T23:05:57.432Z,10.55
2022-09-09T23:08:26.611Z,11.82
2022-09-09T23:10:55.458Z,9.95
2022-09-09T23:13:24.112Z,7.07
2022-09-09T23:15:51.814Z,8.48
2022-09-09T23:18:26.751Z,10.70
2022-09-09T23:21:00.332Z,8.60
2022-09-09T23:23:28.419Z,7.05
2022-09-09T23:25:56.030Z,6.00
2022-09-09T23:28:23.659Z,4.25
2022-09-09T23:30:51.606Z,7.60
2022-09-09T23:33:20.599Z,5.93
2022-09-09T23:35:48.227Z,7.07
2022-09-09T23:38:15.839Z,6.88
2022-09-09T23:40:47.121Z,5.53
2022-09-09T23:43:14.814Z,4.80
2022-09-09T23:45:42.505Z,4.53
2022-09-09T23:48:10.147Z,3.90
2022-09-09T23:50:39.188Z,4.65
2022-09-09T23:53:07.155Z,3.75
2022-09-09T23:55:35.094Z,3.92
2022-09-09T23:58:02.985Z,5.03
